sensor_id;sensor_type;location;lat;lon;timestamp;P1;durP1;ratioP1;P2;durP2;ratioP2
62927;SDS011;51070;52.236;-0.892;2023-03-22T00:00:33;11.10;;;1.90;;
62927;SDS011;51070;52.236;-0.892;2023-03-22T00:02:59;5.80;;;1.40;;
62927;SDS011;51070;52.236;-0.892;2023-03-22T00:05:24;5.00;;;1.30;;
62927;SDS011;51070;52.236;-0.892;2023-03-22T00:07:50;4.10;;;1.10;;
62927;SDS011;51070;52.236;-0.892;2023-03-22T00:10:18;8.70;;;1.60;;
62927;SDS011;51070;52.236;-0.892;2023-03-22T00:12:44;8.50;;;1.50;;
62927;SDS011;51070;52.236;-0.892;2023-03-22T00:15:10;3.60;;;1.00;;
62927;SDS011;51070;52.236;-0.892;2023-03-22T00:17:36;2.90;;;0.80;;
62927;SDS011;51070;52.236;-0.892;2023-03-22T00:20:03;1.80;;;0.80;;
62927;SDS011;51070;52.236;-0.892;2023-03-22T00:22:33;3.50;;;1.20;;
62927;SDS011;51070;52.236;-0.892;2023-03-22T00:24:58;9.70;;;2.40;;
62927;SDS011;51070;52.236;-0.892;2023-03-22T00:27:24;10.80;;;2.00;;
62927;SDS011;51070;52.236;-0.892;2023-03-22T00:29:52;9.20;;;2.00;;
62927;SDS011;51070;52.236;-0.892;2023-03-22T00:34:43;7.40;;;1.90;;
62927;SDS011;51070;52.236;-0.892;2023-03-22T00:37:08;4.10;;;0.90;;
62927;SDS011;51070;52.236;-0.892;2023-03-22T00:39:34;4.20;;;1.40;;
62927;SDS011;51070;52.236;-0.892;2023-03-22T00:41:59;5.00;;;1.30;;
62927;SDS011;51070;52.236;-0.892;2023-03-22T00:44:25;4.30;;;0.90;;
62927;SDS011;51070;52.236;-0.892;2023-03-22T00:46:51;7.70;;;1.20;;
62927;SDS011;51070;52.236;-0.892;2023-03-22T00:49:16;5.30;;;1.30;;
62927;SDS011;51070;52.236;-0.892;2023-03-22T00:51:43;6.20;;;1.10;;
62927;SDS011;51070;52.236;-0.892;2023-03-22T00:54:08;9.70;;;1.90;;
62927;SDS011;51070;52.236;-0.892;2023-03-22T00:56:34;7.90;;;1.80;;
62927;SDS011;51070;52.236;-0.892;2023-03-22T00:59:02;6.50;;;1.30;;
62927;SDS011;51070;52.236;-0.892;2023-03-22T01:01:27;6.10;;;1.00;;
62927;SDS011;51070;52.236;-0.892;2023-03-22T01:03:53;3.40;;;1.30;;
62927;SDS011;51070;52.236;-0.892;2023-03-22T01:06:18;2.10;;;1.30;;
62927;SDS011;51070;52.236;-0.892;2023-03-22T01:08:44;4.50;;;1.10;;
62927;SDS011;51070;52.236;-0.892;2023-03-22T01:11:10;5.30;;;1.40;;
62927;SDS011;51070;52.236;-0.892;2023-03-22T01:13:35;8.20;;;1.00;;
62927;SDS011;51070;52.236;-0.892;2023-03-22T01:16:02;5.10;;;1.20;;
62927;SDS011;51070;52.236;-0.892;2023-03-22T01:18:28;3.40;;;0.90;;
62927;SDS011;51070;52.236;-0.892;2023-03-22T01:20:53;5.00;;;1.20;;
62927;SDS011;51070;52.236;-0.892;2023-03-22T01:23:19;6.80;;;1.60;;
62927;SDS011;51070;52.236;-0.892;2023-03-22T01:25:44;7.50;;;1.60;;
62927;SDS011;51070;52.236;-0.892;2023-03-22T01:28:10;5.30;;;1.40;;
62927;SDS011;51070;52.236;-0.892;2023-03-22T01:30:37;5.40;;;1.60;;
62927;SDS011;51070;52.236;-0.892;2023-03-22T01:33:04;5.80;;;1.80;;
62927;SDS011;51070;52.236;-0.892;2023-03-22T01:35:32;3.30;;;1.00;;
62927;SDS011;51070;52.236;-0.892;2023-03-22T01:37:58;5.30;;;1.10;;
62927;SDS011;51070;52.236;-0.892;2023-03-22T01:40:23;6.90;;;1.40;;
62927;SDS011;51070;52.236;-0.892;2023-03-22T01:42:51;3.70;;;1.50;;
62927;SDS011;51070;52.236;-0.892;2023-03-22T01:48:05;5.70;;;1.30;;
62927;SDS011;51070;52.236;-0.892;2023-03-22T01:50:50;4.30;;;1.00;;
62927;SDS011;51070;52.236;-0.892;2023-03-22T01:53:36;3.00;;;1.10;;
62927;SDS011;51070;52.236;-0.892;2023-03-22T01:56:05;6.10;;;1.30;;
62927;SDS011;51070;52.236;-0.892;2023-03-22T01:58:32;6.20;;;1.40;;
62927;SDS011;51070;52.236;-0.892;2023-03-22T02:01:01;3.50;;;1.20;;
62927;SDS011;51070;52.236;-0.892;2023-03-22T02:03:40;8.10;;;1.60;;
62927;SDS011;51070;52.236;-0.892;2023-03-22T02:06:12;3.50;;;1.30;;
62927;SDS011;51070;52.236;-0.892;2023-03-22T02:08:38;5.50;;;1.30;;
62927;SDS011;51070;52.236;-0.892;2023-03-22T02:11:05;6.10;;;1.70;;
62927;SDS011;51070;52.236;-0.892;2023-03-22T02:24:34;5.60;;;1.50;;
62927;SDS011;51070;52.236;-0.892;2023-03-22T02:44:49;1.50;;;1.00;;
62927;SDS011;51070;52.236;-0.892;2023-03-22T02:55:30;4.70;;;1.00;;
62927;SDS011;51070;52.236;-0.892;2023-03-22T02:58:17;3.50;;;0.60;;
62927;SDS011;51070;52.236;-0.892;2023-03-22T03:00:46;3.20;;;1.40;;
62927;SDS011;51070;52.236;-0.892;2023-03-22T03:03:17;3.20;;;1.20;;
62927;SDS011;51070;52.236;-0.892;2023-03-22T03:05:46;4.00;;;1.10;;
62927;SDS011;51070;52.236;-0.892;2023-03-22T03:08:16;4.30;;;0.80;;
62927;SDS011;51070;52.236;-0.892;2023-03-22T03:10:43;4.90;;;0.90;;
62927;SDS011;51070;52.236;-0.892;2023-03-22T03:13:16;2.80;;;0.80;;
62927;SDS011;51070;52.236;-0.892;2023-03-22T03:15:43;3.60;;;0.70;;
62927;SDS011;51070;52.236;-0.892;2023-03-22T03:28:57;2.30;;;0.60;;
62927;SDS011;51070;52.236;-0.892;2023-03-22T03:34:12;1.60;;;0.60;;
62927;SDS011;51070;52.236;-0.892;2023-03-22T03:36:45;4.60;;;1.10;;
62927;SDS011;51070;52.236;-0.892;2023-03-22T03:39:17;2.40;;;0.60;;
62927;SDS011;51070;52.236;-0.892;2023-03-22T03:41:47;3.40;;;0.80;;
62927;SDS011;51070;52.236;-0.892;2023-03-22T03:44:14;4.50;;;0.80;;
62927;SDS011;51070;52.236;-0.892;2023-03-22T03:46:41;2.10;;;1.00;;
62927;SDS011;51070;52.236;-0.892;2023-03-22T03:49:09;2.60;;;0.60;;
62927;SDS011;51070;52.236;-0.892;2023-03-22T03:51:46;5.40;;;0.80;;
62927;SDS011;51070;52.236;-0.892;2023-03-22T03:54:14;1.70;;;0.60;;
62927;SDS011;51070;52.236;-0.892;2023-03-22T03:56:39;2.90;;;0.60;;
62927;SDS011;51070;52.236;-0.892;2023-03-22T03:59:05;1.40;;;0.50;;
62927;SDS011;51070;52.236;-0.892;2023-03-22T04:01:32;0.40;;;0.30;;
62927;SDS011;51070;52.236;-0.892;2023-03-22T04:03:57;0.40;;;0.40;;
62927;SDS011;51070;52.236;-0.892;2023-03-22T04:06:23;2.10;;;0.60;;
62927;SDS011;51070;52.236;-0.892;2023-03-22T04:08:48;3.20;;;0.70;;
62927;SDS011;51070;52.236;-0.892;2023-03-22T04:11:17;1.60;;;0.40;;
62927;SDS011;51070;52.236;-0.892;2023-03-22T04:13:44;1.50;;;0.40;;
62927;SDS011;51070;52.236;-0.892;2023-03-22T04:16:09;2.20;;;0.60;;
62927;SDS011;51070;52.236;-0.892;2023-03-22T04:18:35;1.80;;;0.40;;
62927;SDS011;51070;52.236;-0.892;2023-03-22T04:21:02;2.30;;;0.20;;
62927;SDS011;51070;52.236;-0.892;2023-03-22T04:23:28;1.50;;;0.40;;
62927;SDS011;51070;52.236;-0.892;2023-03-22T04:25:53;3.30;;;0.60;;
62927;SDS011;51070;52.236;-0.892;2023-03-22T04:28:23;2.10;;;0.60;;
62927;SDS011;51070;52.236;-0.892;2023-03-22T04:30:50;0.70;;;0.50;;
62927;SDS011;51070;52.236;-0.892;2023-03-22T04:33:16;0.40;;;0.40;;
62927;SDS011;51070;52.236;-0.892;2023-03-22T04:35:43;1.30;;;0.50;;
62927;SDS011;51070;52.236;-0.892;2023-03-22T04:38:12;1.40;;;0.60;;
62927;SDS011;51070;52.236;-0.892;2023-03-22T04:40:39;0.60;;;0.40;;
62927;SDS011;51070;52.236;-0.892;2023-03-22T04:43:11;0.40;;;0.20;;
62927;SDS011;51070;52.236;-0.892;2023-03-22T04:45:37;1.50;;;0.60;;
62927;SDS011;51070;52.236;-0.892;2023-03-22T04:48:03;0.30;;;0.30;;
62927;SDS011;51070;52.236;-0.892;2023-03-22T04:50:28;1.90;;;0.90;;
62927;SDS011;51070;52.236;-0.892;2023-03-22T04:52:54;1.90;;;0.40;;
62927;SDS011;51070;52.236;-0.892;2023-03-22T04:55:19;0.80;;;0.50;;
62927;SDS011;51070;52.236;-0.892;2023-03-22T04:57:45;1.60;;;0.50;;
62927;SDS011;51070;52.236;-0.892;2023-03-22T05:00:10;1.00;;;0.40;;
62927;SDS011;51070;52.236;-0.892;2023-03-22T05:02:37;1.00;;;0.40;;
62927;SDS011;51070;52.236;-0.892;2023-03-22T05:05:05;2.30;;;0.30;;
62927;SDS011;51070;52.236;-0.892;2023-03-22T05:07:31;3.60;;;0.30;;
62927;SDS011;51070;52.236;-0.892;2023-03-22T05:09:57;1.80;;;0.40;;
62927;SDS011;51070;52.236;-0.892;2023-03-22T05:12:22;0.50;;;0.30;;
62927;SDS011;51070;52.236;-0.892;2023-03-22T05:14:48;1.90;;;0.20;;
62927;SDS011;51070;52.236;-0.892;2023-03-22T05:17:13;1.20;;;0.30;;
62927;SDS011;51070;52.236;-0.892;2023-03-22T05:19:38;0.80;;;0.50;;
62927;SDS011;51070;52.236;-0.892;2023-03-22T05:22:04;1.20;;;0.40;;
62927;SDS011;51070;52.236;-0.892;2023-03-22T05:24:29;1.70;;;0.50;;
62927;SDS011;51070;52.236;-0.892;2023-03-22T05:26:55;1.40;;;0.50;;
62927;SDS011;51070;52.236;-0.892;2023-03-22T05:29:25;2.60;;;0.90;;
62927;SDS011;51070;52.236;-0.892;2023-03-22T05:31:52;0.70;;;0.50;;
62927;SDS011;51070;52.236;-0.892;2023-03-22T05:34:17;0.60;;;0.20;;
62927;SDS011;51070;52.236;-0.892;2023-03-22T05:36:44;2.00;;;0.60;;
62927;SDS011;51070;52.236;-0.892;2023-03-22T05:39:10;0.20;;;0.20;;
62927;SDS011;51070;52.236;-0.892;2023-03-22T05:41:38;1.30;;;0.50;;
62927;SDS011;51070;52.236;-0.892;2023-03-22T05:44:04;0.40;;;0.30;;
62927;SDS011;51070;52.236;-0.892;2023-03-22T05:46:29;0.30;;;0.30;;
62927;SDS011;51070;52.236;-0.892;2023-03-22T05:48:55;0.80;;;0.40;;
62927;SDS011;51070;52.236;-0.892;2023-03-22T05:51:20;0.20;;;0.20;;
62927;SDS011;51070;52.236;-0.892;2023-03-22T05:53:49;1.30;;;0.30;;
62927;SDS011;51070;52.236;-0.892;2023-03-22T05:56:16;0.80;;;0.30;;
62927;SDS011;51070;52.236;-0.892;2023-03-22T05:58:41;2.00;;;0.50;;
62927;SDS011;51070;52.236;-0.892;2023-03-22T06:01:08;0.80;;;0.30;;
62927;SDS011;51070;52.236;-0.892;2023-03-22T06:03:35;4.10;;;0.60;;
62927;SDS011;51070;52.236;-0.892;2023-03-22T06:06:02;1.20;;;0.40;;
62927;SDS011;51070;52.236;-0.892;2023-03-22T06:08:31;1.30;;;0.40;;
62927;SDS011;51070;52.236;-0.892;2023-03-22T06:10:58;1.10;;;0.40;;
62927;SDS011;51070;52.236;-0.892;2023-03-22T06:13:24;1.90;;;0.50;;
62927;SDS011;51070;52.236;-0.892;2023-03-22T06:15:49;1.60;;;0.80;;
62927;SDS011;51070;52.236;-0.892;2023-03-22T06:18:15;1.50;;;0.40;;
62927;SDS011;51070;52.236;-0.892;2023-03-22T06:20:40;3.60;;;0.90;;
62927;SDS011;51070;52.236;-0.892;2023-03-22T06:23:06;1.60;;;0.50;;
62927;SDS011;51070;52.236;-0.892;2023-03-22T06:25:31;1.40;;;0.60;;
62927;SDS011;51070;52.236;-0.892;2023-03-22T06:27:57;0.70;;;0.30;;
62927;SDS011;51070;52.236;-0.892;2023-03-22T06:30:23;1.40;;;0.90;;
62927;SDS011;51070;52.236;-0.892;2023-03-22T06:32:48;2.20;;;0.90;;
62927;SDS011;51070;52.236;-0.892;2023-03-22T06:35:14;2.20;;;0.50;;
62927;SDS011;51070;52.236;-0.892;2023-03-22T06:37:39;1.50;;;0.60;;
62927;SDS011;51070;52.236;-0.892;2023-03-22T06:40:06;1.70;;;0.60;;
62927;SDS011;51070;52.236;-0.892;2023-03-22T06:42:32;1.10;;;0.70;;
62927;SDS011;51070;52.236;-0.892;2023-03-22T06:44:58;3.50;;;1.00;;
62927;SDS011;51070;52.236;-0.892;2023-03-22T06:47:23;2.10;;;0.80;;
62927;SDS011;51070;52.236;-0.892;2023-03-22T06:49:49;1.50;;;0.70;;
62927;SDS011;51070;52.236;-0.892;2023-03-22T06:52:15;1.60;;;0.90;;
62927;SDS011;51070;52.236;-0.892;2023-03-22T06:54:40;2.70;;;0.80;;
62927;SDS011;51070;52.236;-0.892;2023-03-22T06:57:06;1.40;;;0.50;;
62927;SDS011;51070;52.236;-0.892;2023-03-22T06:59:31;4.10;;;0.90;;
62927;SDS011;51070;52.236;-0.892;2023-03-22T07:01:57;3.60;;;1.00;;
62927;SDS011;51070;52.236;-0.892;2023-03-22T07:04:23;1.60;;;0.70;;
62927;SDS011;51070;52.236;-0.892;2023-03-22T07:06:49;1.70;;;0.80;;
62927;SDS011;51070;52.236;-0.892;2023-03-22T07:09:15;1.90;;;0.40;;
62927;SDS011;51070;52.236;-0.892;2023-03-22T07:11:42;3.10;;;1.10;;
62927;SDS011;51070;52.236;-0.892;2023-03-22T07:14:07;3.60;;;1.30;;
62927;SDS011;51070;52.236;-0.892;2023-03-22T07:16:33;2.80;;;0.70;;
62927;SDS011;51070;52.236;-0.892;2023-03-22T07:18:58;2.20;;;0.90;;
62927;SDS011;51070;52.236;-0.892;2023-03-22T07:21:23;4.10;;;1.30;;
62927;SDS011;51070;52.236;-0.892;2023-03-22T07:23:49;2.60;;;0.80;;
62927;SDS011;51070;52.236;-0.892;2023-03-22T07:26:14;3.60;;;1.00;;
62927;SDS011;51070;52.236;-0.892;2023-03-22T07:28:40;4.70;;;0.90;;
62927;SDS011;51070;52.236;-0.892;2023-03-22T07:33:36;6.90;;;1.50;;
62927;SDS011;51070;52.236;-0.892;2023-03-22T07:36:02;2.60;;;1.10;;
62927;SDS011;51070;52.236;-0.892;2023-03-22T07:38:29;5.30;;;1.40;;
62927;SDS011;51070;52.236;-0.892;2023-03-22T07:40:55;7.10;;;1.10;;
62927;SDS011;51070;52.236;-0.892;2023-03-22T07:43:20;4.60;;;1.60;;
62927;SDS011;51070;52.236;-0.892;2023-03-22T07:45:47;6.50;;;2.00;;
62927;SDS011;51070;52.236;-0.892;2023-03-22T07:48:13;9.60;;;1.80;;
62927;SDS011;51070;52.236;-0.892;2023-03-22T07:50:39;7.10;;;1.80;;
62927;SDS011;51070;52.236;-0.892;2023-03-22T07:53:06;5.90;;;1.50;;
62927;SDS011;51070;52.236;-0.892;2023-03-22T07:55:31;4.90;;;1.40;;
62927;SDS011;51070;52.236;-0.892;2023-03-22T07:57:56;6.60;;;1.60;;
62927;SDS011;51070;52.236;-0.892;2023-03-22T08:00:22;8.60;;;2.10;;
62927;SDS011;51070;52.236;-0.892;2023-03-22T08:02:48;8.40;;;2.00;;
62927;SDS011;51070;52.236;-0.892;2023-03-22T08:05:14;6.90;;;2.30;;
62927;SDS011;51070;52.236;-0.892;2023-03-22T08:07:39;6.00;;;1.90;;
62927;SDS011;51070;52.236;-0.892;2023-03-22T08:10:05;11.00;;;2.40;;
62927;SDS011;51070;52.236;-0.892;2023-03-22T08:12:31;9.10;;;1.80;;
62927;SDS011;51070;52.236;-0.892;2023-03-22T08:14:57;8.00;;;2.00;;
62927;SDS011;51070;52.236;-0.892;2023-03-22T08:17:23;14.30;;;2.20;;
62927;SDS011;51070;52.236;-0.892;2023-03-22T08:19:50;8.10;;;2.00;;
62927;SDS011;51070;52.236;-0.892;2023-03-22T08:22:18;8.50;;;2.50;;
62927;SDS011;51070;52.236;-0.892;2023-03-22T08:24:49;9.70;;;2.70;;
62927;SDS011;51070;52.236;-0.892;2023-03-22T08:27:15;7.60;;;2.00;;
62927;SDS011;51070;52.236;-0.892;2023-03-22T08:29:42;9.70;;;2.50;;
62927;SDS011;51070;52.236;-0.892;2023-03-22T08:32:09;9.60;;;2.30;;
62927;SDS011;51070;52.236;-0.892;2023-03-22T08:34:36;11.90;;;3.30;;
62927;SDS011;51070;52.236;-0.892;2023-03-22T08:37:03;10.80;;;2.40;;
62927;SDS011;51070;52.236;-0.892;2023-03-22T08:39:30;6.40;;;1.60;;
62927;SDS011;51070;52.236;-0.892;2023-03-22T08:41:56;10.80;;;2.30;;
62927;SDS011;51070;52.236;-0.892;2023-03-22T08:44:21;11.20;;;2.20;;
62927;SDS011;51070;52.236;-0.892;2023-03-22T08:46:47;9.20;;;2.60;;
62927;SDS011;51070;52.236;-0.892;2023-03-22T08:49:12;12.00;;;2.80;;
62927;SDS011;51070;52.236;-0.892;2023-03-22T08:51:39;5.30;;;1.90;;
62927;SDS011;51070;52.236;-0.892;2023-03-22T08:54:05;10.50;;;2.80;;
62927;SDS011;51070;52.236;-0.892;2023-03-22T08:56:30;13.50;;;2.70;;
62927;SDS011;51070;52.236;-0.892;2023-03-22T08:58:57;10.10;;;2.70;;
62927;SDS011;51070;52.236;-0.892;2023-03-22T09:01:22;9.00;;;2.80;;
62927;SDS011;51070;52.236;-0.892;2023-03-22T09:03:51;16.90;;;3.50;;
62927;SDS011;51070;52.236;-0.892;2023-03-22T09:06:16;9.50;;;2.30;;
62927;SDS011;51070;52.236;-0.892;2023-03-22T09:08:41;9.70;;;2.40;;
62927;SDS011;51070;52.236;-0.892;2023-03-22T09:11:08;8.90;;;2.40;;
62927;SDS011;51070;52.236;-0.892;2023-03-22T09:13:34;9.90;;;2.70;;
62927;SDS011;51070;52.236;-0.892;2023-03-22T09:15:59;8.00;;;2.40;;
62927;SDS011;51070;52.236;-0.892;2023-03-22T09:18:25;14.10;;;3.30;;
62927;SDS011;51070;52.236;-0.892;2023-03-22T09:20:51;10.90;;;3.10;;
62927;SDS011;51070;52.236;-0.892;2023-03-22T09:23:17;24.20;;;4.00;;
62927;SDS011;51070;52.236;-0.892;2023-03-22T09:25:44;10.60;;;3.50;;
62927;SDS011;51070;52.236;-0.892;2023-03-22T09:28:10;11.00;;;3.00;;
62927;SDS011;51070;52.236;-0.892;2023-03-22T09:30:35;11.90;;;3.50;;
62927;SDS011;51070;52.236;-0.892;2023-03-22T09:33:01;13.50;;;3.80;;
62927;SDS011;51070;52.236;-0.892;2023-03-22T09:35:27;10.00;;;2.70;;
62927;SDS011;51070;52.236;-0.892;2023-03-22T09:37:53;14.70;;;4.40;;
62927;SDS011;51070;52.236;-0.892;2023-03-22T09:40:20;10.40;;;3.70;;
62927;SDS011;51070;52.236;-0.892;2023-03-22T09:42:52;10.30;;;3.10;;
62927;SDS011;51070;52.236;-0.892;2023-03-22T09:45:20;12.70;;;4.00;;
62927;SDS011;51070;52.236;-0.892;2023-03-22T09:47:54;14.10;;;3.60;;
62927;SDS011;51070;52.236;-0.892;2023-03-22T09:50:25;14.90;;;4.30;;
62927;SDS011;51070;52.236;-0.892;2023-03-22T09:52:54;14.80;;;4.30;;
62927;SDS011;51070;52.236;-0.892;2023-03-22T09:55:21;10.50;;;3.60;;
62927;SDS011;51070;52.236;-0.892;2023-03-22T10:00:51;16.00;;;4.50;;
62927;SDS011;51070;52.236;-0.892;2023-03-22T10:06:27;13.00;;;3.60;;
62927;SDS011;51070;52.236;-0.892;2023-03-22T10:11:45;13.50;;;4.10;;
62927;SDS011;51070;52.236;-0.892;2023-03-22T10:14:33;12.40;;;3.60;;
62927;SDS011;51070;52.236;-0.892;2023-03-22T10:17:07;12.50;;;3.80;;
62927;SDS011;51070;52.236;-0.892;2023-03-22T10:22:29;12.40;;;4.00;;
62927;SDS011;51070;52.236;-0.892;2023-03-22T10:24:59;12.30;;;3.30;;
62927;SDS011;51070;52.236;-0.892;2023-03-22T10:27:25;14.30;;;4.00;;
62927;SDS011;51070;52.236;-0.892;2023-03-22T10:30:02;13.30;;;3.90;;
62927;SDS011;51070;52.236;-0.892;2023-03-22T10:32:38;19.40;;;4.30;;
62927;SDS011;51070;52.236;-0.892;2023-03-22T10:35:13;11.90;;;4.50;;
62927;SDS011;51070;52.236;-0.892;2023-03-22T10:37:40;14.80;;;4.40;;
62927;SDS011;51070;52.236;-0.892;2023-03-22T10:40:14;14.90;;;4.00;;
62927;SDS011;51070;52.236;-0.892;2023-03-22T10:42:44;9.40;;;3.40;;
62927;SDS011;51070;52.236;-0.892;2023-03-22T10:45:20;14.50;;;4.20;;
62927;SDS011;51070;52.236;-0.892;2023-03-22T10:47:57;14.90;;;4.00;;
62927;SDS011;51070;52.236;-0.892;2023-03-22T10:50:36;14.10;;;4.20;;
62927;SDS011;51070;52.236;-0.892;2023-03-22T10:53:20;12.50;;;3.50;;
62927;SDS011;51070;52.236;-0.892;2023-03-22T10:55:48;14.20;;;4.30;;
62927;SDS011;51070;52.236;-0.892;2023-03-22T10:58:14;15.70;;;4.10;;
62927;SDS011;51070;52.236;-0.892;2023-03-22T11:03:23;9.50;;;2.80;;
62927;SDS011;51070;52.236;-0.892;2023-03-22T11:05:59;11.60;;;4.20;;
62927;SDS011;51070;52.236;-0.892;2023-03-22T11:08:26;12.40;;;3.70;;
62927;SDS011;51070;52.236;-0.892;2023-03-22T11:10:52;12.70;;;4.10;;
62927;SDS011;51070;52.236;-0.892;2023-03-22T11:13:19;11.40;;;4.00;;
62927;SDS011;51070;52.236;-0.892;2023-03-22T11:15:51;12.50;;;3.20;;
62927;SDS011;51070;52.236;-0.892;2023-03-22T11:18:19;12.60;;;3.80;;
62927;SDS011;51070;52.236;-0.892;2023-03-22T11:20:53;14.70;;;3.50;;
62927;SDS011;51070;52.236;-0.892;2023-03-22T11:23:23;7.90;;;2.80;;
62927;SDS011;51070;52.236;-0.892;2023-03-22T11:25:50;12.60;;;4.40;;
62927;SDS011;51070;52.236;-0.892;2023-03-22T11:28:20;19.80;;;3.60;;
62927;SDS011;51070;52.236;-0.892;2023-03-22T11:30:57;17.90;;;3.50;;
62927;SDS011;51070;52.236;-0.892;2023-03-22T11:33:25;10.20;;;2.90;;
62927;SDS011;51070;52.236;-0.892;2023-03-22T11:35:55;8.50;;;2.80;;
62927;SDS011;51070;52.236;-0.892;2023-03-22T11:41:06;12.80;;;3.90;;
62927;SDS011;51070;52.236;-0.892;2023-03-22T11:43:44;14.00;;;4.50;;
62927;SDS011;51070;52.236;-0.892;2023-03-22T11:46:13;13.60;;;3.50;;
62927;SDS011;51070;52.236;-0.892;2023-03-22T11:48:41;16.20;;;4.10;;
62927;SDS011;51070;52.236;-0.892;2023-03-22T11:51:11;11.80;;;3.50;;
62927;SDS011;51070;52.236;-0.892;2023-03-22T11:53:39;12.80;;;3.20;;
62927;SDS011;51070;52.236;-0.892;2023-03-22T11:56:09;9.70;;;3.60;;
62927;SDS011;51070;52.236;-0.892;2023-03-22T12:01:40;14.40;;;3.90;;
62927;SDS011;51070;52.236;-0.892;2023-03-22T12:04:12;10.20;;;3.00;;
62927;SDS011;51070;52.236;-0.892;2023-03-22T12:06:41;9.10;;;2.90;;
62927;SDS011;51070;52.236;-0.892;2023-03-22T12:11:54;8.70;;;3.00;;
62927;SDS011;51070;52.236;-0.892;2023-03-22T12:14:28;16.60;;;3.60;;
62927;SDS011;51070;52.236;-0.892;2023-03-22T12:22:49;7.70;;;2.70;;
62927;SDS011;51070;52.236;-0.892;2023-03-22T12:25:19;15.60;;;3.50;;
62927;SDS011;51070;52.236;-0.892;2023-03-22T12:27:58;13.60;;;3.00;;
62927;SDS011;51070;52.236;-0.892;2023-03-22T12:30:32;10.10;;;2.10;;
62927;SDS011;51070;52.236;-0.892;2023-03-22T12:33:08;9.60;;;2.30;;
62927;SDS011;51070;52.236;-0.892;2023-03-22T12:35:49;6.80;;;2.00;;
62927;SDS011;51070;52.236;-0.892;2023-03-22T12:40:45;8.90;;;2.90;;
62927;SDS011;51070;52.236;-0.892;2023-03-22T12:46:03;10.40;;;2.90;;
62927;SDS011;51070;52.236;-0.892;2023-03-22T12:48:41;7.20;;;1.80;;
62927;SDS011;51070;52.236;-0.892;2023-03-22T12:51:13;7.90;;;2.40;;
62927;SDS011;51070;52.236;-0.892;2023-03-22T12:53:52;7.80;;;2.20;;
62927;SDS011;51070;52.236;-0.892;2023-03-22T12:56:25;14.00;;;2.90;;
62927;SDS011;51070;52.236;-0.892;2023-03-22T12:59:03;7.60;;;1.70;;
62927;SDS011;51070;52.236;-0.892;2023-03-22T13:01:43;9.80;;;2.60;;
62927;SDS011;51070;52.236;-0.892;2023-03-22T13:04:26;10.50;;;2.40;;
62927;SDS011;51070;52.236;-0.892;2023-03-22T13:17:14;9.30;;;2.10;;
62927;SDS011;51070;52.236;-0.892;2023-03-22T13:32:58;10.90;;;2.00;;
62927;SDS011;51070;52.236;-0.892;2023-03-22T13:38:15;7.50;;;2.40;;
62927;SDS011;51070;52.236;-0.892;2023-03-22T13:40:51;7.00;;;2.00;;
62927;SDS011;51070;52.236;-0.892;2023-03-22T13:56:29;5.90;;;1.40;;
62927;SDS011;51070;52.236;-0.892;2023-03-22T13:59:26;5.80;;;1.70;;
62927;SDS011;51070;52.236;-0.892;2023-03-22T14:04:51;13.80;;;2.20;;
62927;SDS011;51070;52.236;-0.892;2023-03-22T14:10:17;6.40;;;1.70;;
62927;SDS011;51070;52.236;-0.892;2023-03-22T14:15:55;5.20;;;1.30;;
62927;SDS011;51070;52.236;-0.892;2023-03-22T14:18:27;9.10;;;2.20;;
62927;SDS011;51070;52.236;-0.892;2023-03-22T14:21:12;5.30;;;1.80;;
62927;SDS011;51070;52.236;-0.892;2023-03-22T14:23:43;11.40;;;2.30;;
62927;SDS011;51070;52.236;-0.892;2023-03-22T14:29:20;13.00;;;2.90;;
62927;SDS011;51070;52.236;-0.892;2023-03-22T14:32:01;5.10;;;1.50;;
62927;SDS011;51070;52.236;-0.892;2023-03-22T14:34:32;4.10;;;1.70;;
62927;SDS011;51070;52.236;-0.892;2023-03-22T14:37:01;9.40;;;1.90;;
62927;SDS011;51070;52.236;-0.892;2023-03-22T14:42:02;5.90;;;2.00;;
62927;SDS011;51070;52.236;-0.892;2023-03-22T14:44:36;11.50;;;2.00;;
62927;SDS011;51070;52.236;-0.892;2023-03-22T14:47:16;6.20;;;1.60;;
62927;SDS011;51070;52.236;-0.892;2023-03-22T14:49:44;6.60;;;2.30;;
62927;SDS011;51070;52.236;-0.892;2023-03-22T14:52:16;7.20;;;2.20;;
62927;SDS011;51070;52.236;-0.892;2023-03-22T14:54:51;4.60;;;1.60;;
62927;SDS011;51070;52.236;-0.892;2023-03-22T14:57:23;5.60;;;1.80;;
62927;SDS011;51070;52.236;-0.892;2023-03-22T14:59:49;7.60;;;1.80;;
62927;SDS011;51070;52.236;-0.892;2023-03-22T15:02:20;7.20;;;2.10;;
62927;SDS011;51070;52.236;-0.892;2023-03-22T15:04:50;4.60;;;1.80;;
62927;SDS011;51070;52.236;-0.892;2023-03-22T15:07:17;6.10;;;2.30;;
62927;SDS011;51070;52.236;-0.892;2023-03-22T15:09:44;11.20;;;2.20;;
62927;SDS011;51070;52.236;-0.892;2023-03-22T15:12:10;7.20;;;2.10;;
62927;SDS011;51070;52.236;-0.892;2023-03-22T15:14:37;7.50;;;2.40;;
62927;SDS011;51070;52.236;-0.892;2023-03-22T15:17:04;10.20;;;2.70;;
62927;SDS011;51070;52.236;-0.892;2023-03-22T15:22:16;9.10;;;1.60;;
62927;SDS011;51070;52.236;-0.892;2023-03-22T15:24:48;12.10;;;2.20;;
62927;SDS011;51070;52.236;-0.892;2023-03-22T15:27:13;8.30;;;2.30;;
62927;SDS011;51070;52.236;-0.892;2023-03-22T15:32:12;10.60;;;2.20;;
62927;SDS011;51070;52.236;-0.892;2023-03-22T15:34:41;7.30;;;2.10;;
62927;SDS011;51070;52.236;-0.892;2023-03-22T15:37:11;7.80;;;1.80;;
62927;SDS011;51070;52.236;-0.892;2023-03-22T15:39:42;9.00;;;2.90;;
62927;SDS011;51070;52.236;-0.892;2023-03-22T15:44:47;7.40;;;2.30;;
62927;SDS011;51070;52.236;-0.892;2023-03-22T15:47:43;15.70;;;2.90;;
62927;SDS011;51070;52.236;-0.892;2023-03-22T15:50:11;9.10;;;2.40;;
62927;SDS011;51070;52.236;-0.892;2023-03-22T15:52:48;8.00;;;2.20;;
62927;SDS011;51070;52.236;-0.892;2023-03-22T15:55:17;8.00;;;2.00;;
62927;SDS011;51070;52.236;-0.892;2023-03-22T16:00:20;7.60;;;1.80;;
62927;SDS011;51070;52.236;-0.892;2023-03-22T16:05:33;7.70;;;2.40;;
62927;SDS011;51070;52.236;-0.892;2023-03-22T16:08:00;11.00;;;2.00;;
62927;SDS011;51070;52.236;-0.892;2023-03-22T16:10:27;4.70;;;1.70;;
62927;SDS011;51070;52.236;-0.892;2023-03-22T16:12:54;8.10;;;1.70;;
62927;SDS011;51070;52.236;-0.892;2023-03-22T16:15:22;6.10;;;1.80;;
62927;SDS011;51070;52.236;-0.892;2023-03-22T16:17:49;11.40;;;2.30;;
62927;SDS011;51070;52.236;-0.892;2023-03-22T16:20:15;8.90;;;1.80;;
62927;SDS011;51070;52.236;-0.892;2023-03-22T16:22:42;10.40;;;3.00;;
62927;SDS011;51070;52.236;-0.892;2023-03-22T16:25:17;8.90;;;2.50;;
62927;SDS011;51070;52.236;-0.892;2023-03-22T16:27:45;6.70;;;1.90;;
62927;SDS011;51070;52.236;-0.892;2023-03-22T16:30:11;12.10;;;2.90;;
62927;SDS011;51070;52.236;-0.892;2023-03-22T16:32:38;11.50;;;2.60;;
62927;SDS011;51070;52.236;-0.892;2023-03-22T16:35:04;4.00;;;1.90;;
62927;SDS011;51070;52.236;-0.892;2023-03-22T16:37:35;10.10;;;2.30;;
62927;SDS011;51070;52.236;-0.892;2023-03-22T16:40:02;8.90;;;1.90;;
62927;SDS011;51070;52.236;-0.892;2023-03-22T16:42:28;7.80;;;2.20;;
62927;SDS011;51070;52.236;-0.892;2023-03-22T16:44:53;9.90;;;2.60;;
62927;SDS011;51070;52.236;-0.892;2023-03-22T16:47:21;6.90;;;2.40;;
62927;SDS011;51070;52.236;-0.892;2023-03-22T16:49:49;9.50;;;1.90;;
62927;SDS011;51070;52.236;-0.892;2023-03-22T16:52:16;8.80;;;2.30;;
62927;SDS011;51070;52.236;-0.892;2023-03-22T16:54:47;5.90;;;2.00;;
62927;SDS011;51070;52.236;-0.892;2023-03-22T16:57:14;8.10;;;2.20;;
62927;SDS011;51070;52.236;-0.892;2023-03-22T16:59:41;5.30;;;2.00;;
62927;SDS011;51070;52.236;-0.892;2023-03-22T17:02:14;7.20;;;1.80;;
62927;SDS011;51070;52.236;-0.892;2023-03-22T17:04:40;7.40;;;2.20;;
62927;SDS011;51070;52.236;-0.892;2023-03-22T17:07:10;9.60;;;2.10;;
62927;SDS011;51070;52.236;-0.892;2023-03-22T17:09:38;9.70;;;2.30;;
62927;SDS011;51070;52.236;-0.892;2023-03-22T17:12:04;9.30;;;2.00;;
62927;SDS011;51070;52.236;-0.892;2023-03-22T17:14:30;7.30;;;2.10;;
62927;SDS011;51070;52.236;-0.892;2023-03-22T17:16:55;8.50;;;1.90;;